Time;durP1;ratioP1;P1;durP2;ratioP2;P2;SDS_P1;SDS_P2;PMS_P1;PMS_P2;Temp;Humidity;BMP_temperature;BMP_pressure;BME280_temperature;BME280_humidity;BME280_pressure;Samples;Min_cycle;Max_cycle;Signal;HPM_P1;HPM_P2
2023/10/19 00:01:15;;;;;;;7.65;3.58;;;;;;;10.70;56.02;99114.06;4452566;32;34768;-78
2023/10/19 00:03:44;;;;;;;8.85;3.90;;;;;;;10.56;56.95;99108.31;4458317;32;33780;-77
2023/10/19 00:06:17;;;;;;;10.02;3.58;;;;;;;10.96;55.31;99105.66;4445319;32;34045;-77
2023/10/19 00:08:47;;;;;;;8.55;4.07;;;;;;;11.03;55.12;99096.84;4454361;32;34205;-77
2023/10/19 00:11:21;;;;;;;6.22;3.25;;;;;;;10.87;56.51;99095.50;4467615;32;33398;-76
2023/10/19 00:13:54;;;;;;;7.43;4.25;;;;;;;10.73;57.16;99087.19;4463651;32;34586;-76
2023/10/19 00:16:28;;;;;;;6.32;3.85;;;;;;;10.92;56.88;99087.63;4455290;32;34031;-75
2023/10/19 00:19:01;;;;;;;8.73;3.50;;;;;;;11.03;56.53;99091.66;4460926;32;33763;-76
2023/10/19 00:21:29;;;;;;;8.18;4.50;;;;;;;10.96;57.27;99084.91;4478907;32;33372;-76
2023/10/19 00:24:04;;;;;;;7.95;4.12;;;;;;;10.88;57.83;99077.31;4479128;32;33737;-79
2023/10/19 00:26:32;;;;;;;7.15;4.00;;;;;;;11.01;57.12;99077.84;4467287;32;33333;-78
2023/10/19 00:29:18;;;;;;;8.02;3.50;;;;;;;11.10;56.94;99077.63;4472418;32;33870;-76
2023/10/19 00:31:49;;;;;;;6.72;4.30;;;;;;;10.97;57.42;99065.88;4472770;32;34269;-76
2023/10/19 00:34:21;;;;;;;8.73;3.97;;;;;;;10.50;58.97;99073.03;4475225;32;33974;-78
2023/10/19 00:37:01;;;;;;;11.43;4.78;;;;;;;10.91;57.78;99072.94;4470421;32;33831;-78
2023/10/19 00:39:43;;;;;;;6.97;3.70;;;;;;;10.78;58.01;99065.47;4461930;32;33542;-76
2023/10/19 00:42:22;;;;;;;9.15;4.22;;;;;;;10.84;57.82;99064.44;4462703;32;33704;-78
2023/10/19 00:45:01;;;;;;;6.68;3.72;;;;;;;10.64;58.78;99063.19;4468991;32;33974;-76
2023/10/19 00:47:39;;;;;;;6.35;4.10;;;;;;;10.40;59.65;99058.56;4465916;32;34172;-77
2023/10/19 00:50:22;;;;;;;9.02;4.43;;;;;;;10.44;59.65;99060.22;4477797;32;32875;-76
2023/10/19 00:52:51;;;;;;;11.48;4.47;;;;;;;10.36;60.27;99056.91;4476296;32;33506;-76
2023/10/19 00:55:28;;;;;;;8.38;4.47;;;;;;;10.64;59.43;99039.84;4461941;32;34866;-78
2023/10/19 00:58:09;;;;;;;6.73;4.33;;;;;;;10.74;59.12;99043.06;4461417;32;32741;-77
2023/10/19 01:00:45;;;;;;;7.85;4.60;;;;;;;10.83;59.12;99042.00;4470441;32;31523;-77
2023/10/19 01:03:17;;;;;;;7.62;4.32;;;;;;;11.12;58.50;99041.25;4479763;32;34479;-76
2023/10/19 01:05:49;;;;;;;7.53;3.92;;;;;;;11.00;59.15;99032.03;4481229;32;33184;-75
2023/10/19 01:08:24;;;;;;;9.65;4.53;;;;;;;10.85;60.66;99032.44;4468853;32;34112;-75
2023/10/19 01:10:55;;;;;;;9.52;5.25;;;;;;;11.35;60.14;99027.66;4475210;32;34022;-76
2023/10/19 01:13:34;;;;;;;9.18;4.95;;;;;;;11.09;61.13;99023.19;4473173;32;33747;-77
2023/10/19 01:16:15;;;;;;;7.87;4.53;;;;;;;11.16;61.69;99029.88;4469693;32;34058;-75
2023/10/19 01:18:45;;;;;;;6.82;4.35;;;;;;;10.93;63.15;99027.06;4473662;32;33366;-77
2023/10/19 01:21:35;;;;;;;10.95;5.18;;;;;;;10.94;63.41;99027.00;4477728;32;33271;-78
2023/10/19 01:24:12;;;;;;;8.55;5.10;;;;;;;10.83;64.30;99026.44;4477278;32;33749;-77
2023/10/19 01:26:47;;;;;;;8.68;5.55;;;;;;;10.98;64.47;99026.03;4467080;32;33537;-75
2023/10/19 01:29:26;;;;;;;9.30;4.82;;;;;;;10.64;65.95;99023.44;4475998;32;33641;-77
2023/10/19 01:32:06;;;;;;;11.23;4.65;;;;;;;10.49;66.90;99009.09;4470885;32;33356;-76
2023/10/19 01:34:35;;;;;;;10.63;5.05;;;;;;;10.68;66.37;99004.31;4473688;32;33891;-79
2023/10/19 01:37:12;;;;;;;10.48;5.07;;;;;;;10.62;66.84;99000.09;4462428;32;34782;-77
2023/10/19 01:39:49;;;;;;;10.57;5.82;;;;;;;10.58;67.70;98995.03;4469590;32;34392;-77
2023/10/19 01:42:18;;;;;;;9.00;5.15;;;;;;;10.74;67.29;98983.38;4480869;32;34041;-77
2023/10/19 01:44:46;;;;;;;8.38;5.18;;;;;;;10.28;70.09;98984.50;4476111;32;34371;-77
2023/10/19 01:47:16;;;;;;;11.68;5.53;;;;;;;10.09;71.26;98983.19;4476387;32;34101;-77
2023/10/19 01:49:52;;;;;;;8.52;5.55;;;;;;;9.85;72.16;98988.03;4472067;32;33776;-77
2023/10/19 01:52:24;;;;;;;7.68;4.80;;;;;;;10.18;71.60;98980.41;4478294;32;33328;-77
2023/10/19 01:55:07;;;;;;;7.57;5.35;;;;;;;10.28;70.79;98976.72;4469640;32;33803;-78
2023/10/19 01:57:39;;;;;;;7.75;4.35;;;;;;;10.18;71.31;98973.47;4483325;32;34123;-80
2023/10/19 02:00:22;;;;;;;14.07;6.53;;;;;;;9.95;72.54;98979.16;4471323;32;34771;-78
2023/10/19 02:02:58;;;;;;;9.02;5.43;;;;;;;9.80;73.35;98982.09;4463349;32;33554;-79
2023/10/19 02:05:33;;;;;;;6.62;4.30;;;;;;;9.97;73.20;98968.78;4468955;32;33598;-79
2023/10/19 02:08:07;;;;;;;10.40;5.60;;;;;;;9.70;74.42;98963.31;4478261;32;33555;-77
2023/10/19 02:10:48;;;;;;;9.15;5.07;;;;;;;9.82;73.79;98957.84;4481061;32;33414;-79
2023/10/19 02:13:25;;;;;;;12.45;4.97;;;;;;;9.97;73.77;98955.81;4477430;32;33600;-78
2023/10/19 02:15:54;;;;;;;10.88;5.40;;;;;;;10.11;72.68;98948.56;4475953;32;34671;-78
2023/10/19 02:18:25;;;;;;;10.25;5.50;;;;;;;10.03;73.14;98959.13;4468372;32;34027;-78
2023/10/19 02:20:56;;;;;;;11.52;5.25;;;;;;;10.04;73.66;98947.00;4471962;32;34374;-77
2023/10/19 02:23:28;;;;;;;19.23;5.22;;;;;;;10.03;73.37;98950.50;4480990;32;33265;-78
2023/10/19 02:25:57;;;;;;;9.93;5.68;;;;;;;9.81;74.21;98947.56;4472034;32;34205;-76
2023/10/19 02:28:31;;;;;;;9.35;5.20;;;;;;;9.63;75.31;98950.53;4465972;32;33472;-80
2023/10/19 02:31:11;;;;;;;10.15;5.87;;;;;;;9.97;74.05;98941.13;4477628;32;34441;-80
2023/10/19 02:33:39;;;;;;;10.23;5.72;;;;;;;9.91;74.94;98932.66;4462260;32;34157;-76
2023/10/19 02:36:12;;;;;;;8.40;4.55;;;;;;;9.59;76.07;98934.19;4471948;32;33631;-78
2023/10/19 02:38:44;;;;;;;8.73;5.00;;;;;;;9.58;76.77;98933.34;4476707;32;33703;-80
2023/10/19 02:41:19;;;;;;;9.52;6.03;;;;;;;9.77;75.85;98915.66;4468036;32;33287;-77
2023/10/19 02:44:01;;;;;;;10.45;5.10;;;;;;;9.90;74.83;98911.03;4468685;32;34182;-78
2023/10/19 02:46:33;;;;;;;9.18;6.57;;;;;;;9.66;75.98;98899.50;4467386;32;33834;-77
2023/10/19 02:49:04;;;;;;;13.82;5.68;;;;;;;10.26;73.65;98900.69;4468677;32;34432;-77
2023/10/19 02:51:36;;;;;;;10.30;6.03;;;;;;;9.89;75.65;98905.91;4479629;32;34544;-79
2023/10/19 02:54:06;;;;;;;12.15;6.35;;;;;;;9.76;75.86;98901.03;4477112;32;32520;-79
2023/10/19 02:56:47;;;;;;;13.15;7.30;;;;;;;9.83;75.56;98905.19;4478106;32;35195;-77
2023/10/19 02:59:24;;;;;;;11.95;6.05;;;;;;;9.63;76.79;98889.22;4464210;32;34609;-76
2023/10/19 03:02:00;;;;;;;12.13;6.93;;;;;;;9.69;76.78;98886.50;4479068;32;33305;-80
2023/10/19 03:04:35;;;;;;;14.15;6.18;;;;;;;9.69;77.56;98894.28;4482275;32;33049;-77
2023/10/19 03:07:04;;;;;;;9.38;6.32;;;;;;;9.65;77.86;98886.59;4478068;32;33691;-78
2023/10/19 03:09:36;;;;;;;10.52;6.07;;;;;;;9.60;77.65;98891.88;4477201;32;34763;-77
2023/10/19 03:12:10;;;;;;;12.20;7.65;;;;;;;9.75;77.31;98888.94;4479644;32;34135;-78
2023/10/19 03:14:39;;;;;;;12.68;6.65;;;;;;;10.08;75.70;98875.25;4481742;32;33357;-80
2023/10/19 03:17:08;;;;;;;12.45;6.28;;;;;;;9.95;76.36;98874.66;4476989;32;33568;-77
2023/10/19 03:19:38;;;;;;;11.30;6.78;;;;;;;10.07;75.67;98866.59;4475871;32;34012;-76
2023/10/19 03:22:11;;;;;;;11.48;6.65;;;;;;;10.23;74.80;98854.97;4482070;32;33554;-76
2023/10/19 03:24:42;;;;;;;12.15;6.93;;;;;;;10.18;75.18;98851.66;4473183;32;33097;-76
2023/10/19 03:27:16;;;;;;;9.50;5.78;;;;;;;9.85;76.57;98842.94;4482497;32;34347;-79
2023/10/19 03:29:55;;;;;;;11.25;6.75;;;;;;;10.08;75.19;98834.63;4468723;32;33912;-79
2023/10/19 03:32:26;;;;;;;11.57;6.53;;;;;;;9.79;76.25;98848.28;4477899;32;34491;-78
2023/10/19 03:35:06;;;;;;;13.93;6.78;;;;;;;9.73;76.96;98846.69;4471063;32;33317;-78
2023/10/19 03:37:38;;;;;;;10.87;7.23;;;;;;;9.98;75.82;98830.56;4476516;32;33614;-77
2023/10/19 03:40:11;;;;;;;13.30;7.85;;;;;;;9.94;76.13;98823.75;4474545;32;34572;-77
2023/10/19 03:42:42;;;;;;;13.55;7.62;;;;;;;9.88;76.52;98822.16;4476784;32;34147;-77
2023/10/19 03:45:12;;;;;;;14.50;7.33;;;;;;;9.88;76.87;98829.91;4470906;32;33410;-77
2023/10/19 03:47:55;;;;;;;18.45;8.13;;;;;;;9.76;76.89;98833.69;4468442;32;33212;-78
2023/10/19 03:50:33;;;;;;;10.27;6.95;;;;;;;9.72;77.18;98829.44;4468141;32;33241;-78
2023/10/19 03:53:04;;;;;;;13.15;7.43;;;;;;;9.71;77.15;98829.47;4467560;32;33563;-76
2023/10/19 03:55:38;;;;;;;10.48;6.72;;;;;;;9.87;76.75;98822.19;4475779;32;34088;-76
2023/10/19 03:58:10;;;;;;;12.90;6.95;;;;;;;10.21;75.10;98822.22;4477552;32;33797;-77
2023/10/19 04:00:39;;;;;;;11.40;7.07;;;;;;;10.09;75.84;98819.94;4475067;32;35272;-76
2023/10/19 04:03:17;;;;;;;15.07;8.43;;;;;;;9.99;76.08;98814.13;4477097;32;34370;-78
2023/10/19 04:05:50;;;;;;;12.95;7.12;;;;;;;9.98;76.07;98807.25;4481095;32;33103;-79
2023/10/19 04:08:26;;;;;;;11.12;6.47;;;;;;;9.73;77.50;98805.22;4476407;32;33511;-77
2023/10/19 04:11:08;;;;;;;12.68;8.23;;;;;;;9.82;77.15;98799.84;4478645;32;34243;-79
2023/10/19 04:13:42;;;;;;;16.85;7.68;;;;;;;9.49;78.44;98790.28;4473976;32;33352;-77
2023/10/19 04:16:18;;;;;;;16.30;6.53;;;;;;;9.33;80.04;98782.03;4469188;32;33721;-77
2023/10/19 04:18:49;;;;;;;10.50;6.28;;;;;;;9.25;80.18;98784.78;4470271;32;33822;-77
2023/10/19 04:21:26;;;;;;;12.23;7.32;;;;;;;9.56;78.96;98779.75;4473979;32;33648;-79
2023/10/19 04:23:59;;;;;;;15.05;8.13;;;;;;;9.64;78.41;98776.13;4473690;32;33823;-78
2023/10/19 04:26:36;;;;;;;13.40;7.70;;;;;;;9.10;81.36;98775.63;4465254;32;33096;-78
2023/10/19 04:29:11;;;;;;;9.02;6.35;;;;;;;9.76;77.70;98765.47;4469987;32;33863;-78
2023/10/19 04:31:49;;;;;;;;;;;;;;;9.46;79.19;98747.19;4480786;32;34691;-78
2023/10/19 04:34:26;;;;;;;18.15;6.82;;;;;;;9.65;78.21;98750.19;4471890;32;33877;-79
2023/10/19 04:36:57;;;;;;;12.65;7.47;;;;;;;9.46;79.60;98751.53;4464325;32;33132;-77
2023/10/19 04:39:30;;;;;;;12.57;6.78;;;;;;;9.69;78.18;98751.84;4470204;32;33416;-78
2023/10/19 04:41:59;;;;;;;10.57;6.62;;;;;;;9.57;79.06;98752.97;4478176;32;33217;-76
2023/10/19 04:44:34;;;;;;;15.30;5.97;;;;;;;9.50;79.77;98742.81;4478313;32;34681;-77
2023/10/19 04:47:03;;;;;;;13.15;7.15;;;;;;;9.60;78.77;98744.28;4469464;32;32684;-77
2023/10/19 04:49:39;;;;;;;15.13;8.55;;;;;;;9.75;78.00;98749.06;4464399;32;83977;-80
2023/10/19 04:52:14;;;;;;;11.98;7.47;;;;;;;9.38;79.94;98734.44;4478724;32;34392;-77
2023/10/19 04:54:43;;;;;;;12.60;7.10;;;;;;;9.73;78.46;98745.66;4466814;32;34122;-77
2023/10/19 04:57:12;;;;;;;12.77;7.15;;;;;;;9.85;78.21;98738.50;4469728;32;33139;-75
2023/10/19 04:59:45;;;;;;;12.68;7.25;;;;;;;9.80;78.23;98747.22;4468374;32;33613;-77
2023/10/19 05:02:14;;;;;;;12.82;7.18;;;;;;;9.45;79.95;98740.34;4474674;32;34592;-77
2023/10/19 05:04:45;;;;;;;9.88;6.57;;;;;;;9.46;79.83;98751.53;4471916;32;33123;-80
2023/10/19 05:07:17;;;;;;;11.30;7.03;;;;;;;9.63;79.37;98741.59;4467720;32;33318;-77
2023/10/19 05:09:46;;;;;;;12.10;6.65;;;;;;;9.29;81.60;98721.72;4471548;32;34442;-76
2023/10/19 05:12:19;;;;;;;9.45;6.00;;;;;;;9.43;80.94;98730.91;4477701;32;34344;-77
2023/10/19 05:14:50;;;;;;;14.20;6.53;;;;;;;9.75;79.49;98735.28;4475538;32;33814;-78
2023/10/19 05:17:21;;;;;;;12.43;7.37;;;;;;;9.88;78.35;98736.66;4473549;32;34141;-76
2023/10/19 05:19:49;;;;;;;13.38;7.30;;;;;;;9.24;81.92;98727.87;4467647;32;33198;-78
2023/10/19 05:22:21;;;;;;;11.07;5.97;;;;;;;9.49;80.59;98733.31;4466375;32;33681;-79
2023/10/19 05:24:49;;;;;;;;;;;;;;;9.94;78.32;98752.06;4466812;32;33517;-77
2023/10/19 05:27:23;;;;;;;17.25;7.07;;;;;;;9.89;78.61;98735.78;4468680;32;32869;-77
2023/10/19 05:29:53;;;;;;;15.57;7.87;;;;;;;9.67;79.00;98748.44;4470513;32;32383;-79
2023/10/19 05:32:25;;;;;;;13.88;6.72;;;;;;;9.31;81.64;98737.22;4467497;32;33946;-76
2023/10/19 05:34:53;;;;;;;;;;;;;;;9.73;79.42;98734.47;4461720;32;33427;-78
2023/10/19 05:37:29;;;;;;;13.55;6.93;;;;;;;9.63;80.44;98738.19;4466470;32;33023;-77
2023/10/19 05:39:58;;;;;;;11.63;7.97;;;;;;;9.77;79.47;98741.28;4466586;32;34924;-76
2023/10/19 05:42:34;;;;;;;12.65;8.45;;;;;;;9.79;80.06;98749.88;4469879;32;34574;-76
2023/10/19 05:45:12;;;;;;;13.85;6.97;;;;;;;9.95;79.04;98740.78;4468394;32;33552;-76
2023/10/19 05:47:42;;;;;;;14.80;7.68;;;;;;;10.30;76.91;98733.03;4469051;32;34045;-79
2023/10/19 05:50:17;;;;;;;12.20;6.47;;;;;;;10.13;78.11;98726.50;4469278;32;34071;-77
2023/10/19 05:52:51;;;;;;;12.27;6.78;;;;;;;10.31;77.09;98726.94;4472261;32;33771;-76
2023/10/19 05:55:36;;;;;;;13.10;6.45;;;;;;;10.31;76.86;98719.16;4480337;32;33891;-79
2023/10/19 05:58:05;;;;;;;17.02;7.57;;;;;;;9.95;78.78;98725.25;4464743;32;33083;-78
2023/10/19 06:00:35;;;;;;;11.73;7.25;;;;;;;9.87;79.81;98734.13;4469528;32;34676;-77
2023/10/19 06:03:05;;;;;;;12.03;7.33;;;;;;;10.10;78.25;98749.94;4474041;32;35087;-75
2023/10/19 06:05:37;;;;;;;11.73;6.50;;;;;;;9.68;79.99;98731.97;4470964;32;33880;-75
2023/10/19 06:08:06;;;;;;;12.27;7.47;;;;;;;9.77;80.21;98725.72;4481069;32;32270;-77
2023/10/19 06:10:40;;;;;;;11.32;7.45;;;;;;;10.12;77.84;98724.78;4468721;32;33598;-75
2023/10/19 06:13:09;;;;;;;12.98;7.12;;;;;;;10.15;78.00;98737.69;4471460;32;34036;-77
2023/10/19 06:15:41;;;;;;;13.27;6.70;;;;;;;9.65;80.83;98737.25;4468193;32;33939;-75
2023/10/19 06:18:11;;;;;;;13.48;6.85;;;;;;;10.07;78.66;98728.41;4473121;32;33779;-76
2023/10/19 06:20:45;;;;;;;13.73;7.87;;;;;;;9.73;80.66;98717.19;4480167;32;33826;-76
2023/10/19 06:23:13;;;;;;;11.45;7.10;;;;;;;9.47;82.47;98715.25;4475589;32;33962;-78
2023/10/19 06:25:43;;;;;;;13.60;7.57;;;;;;;10.06;79.37;98724.12;4470605;32;31950;-76
2023/10/19 06:28:12;;;;;;;16.08;7.62;;;;;;;10.11;79.06;98717.94;4466021;32;33202;-75
2023/10/19 06:30:48;;;;;;;13.18;6.68;;;;;;;9.91;80.21;98709.84;4477105;32;33378;-75
2023/10/19 06:33:16;;;;;;;11.85;7.43;;;;;;;9.98;79.86;98713.97;4477981;32;33634;-75
2023/10/19 06:35:47;;;;;;;12.15;7.05;;;;;;;10.34;77.91;98713.87;4462620;32;34149;-75
2023/10/19 06:38:17;;;;;;;15.15;7.35;;;;;;;9.73;81.03;98701.62;4462361;32;33134;-75
2023/10/19 06:41:02;;;;;;;10.13;6.32;;;;;;;9.98;80.09;98698.44;4469825;32;34538;-75
2023/10/19 06:43:39;;;;;;;15.77;8.02;;;;;;;10.45;77.46;98701.47;4473380;32;33630;-76
2023/10/19 06:46:11;;;;;;;12.95;7.28;;;;;;;10.54;77.16;98709.00;4471821;32;31912;-75
2023/10/19 06:48:40;;;;;;;12.37;6.28;;;;;;;10.48;77.20;98706.56;4476252;32;33435;-76
2023/10/19 06:51:12;;;;;;;11.05;6.70;;;;;;;10.11;79.31;98701.53;4473249;32;34705;-76
2023/10/19 06:53:41;;;;;;;13.98;6.70;;;;;;;10.49;78.00;98694.47;4472004;32;33907;-76
2023/10/19 06:56:10;;;;;;;13.32;6.37;;;;;;;10.28;78.28;98694.16;4456681;32;33009;-75
2023/10/19 06:58:41;;;;;;;13.10;7.57;;;;;;;10.13;79.76;98695.41;4475420;32;32507;-77
2023/10/19 07:01:16;;;;;;;13.62;8.30;;;;;;;10.24;78.34;98692.50;4468617;32;34589;-74
2023/10/19 07:03:45;;;;;;;14.05;7.40;;;;;;;10.21;78.62;98700.38;4472955;32;34625;-76
2023/10/19 07:06:18;;;;;;;13.85;8.02;;;;;;;10.22;78.84;98696.88;4468339;32;33579;-75
2023/10/19 07:08:47;;;;;;;12.00;6.32;;;;;;;10.28;78.67;98703.66;4463908;32;33264;-76
2023/10/19 07:11:19;;;;;;;10.73;6.87;;;;;;;10.46;77.39;98695.38;4462998;32;33914;-75
2023/10/19 07:13:48;;;;;;;11.40;7.05;;;;;;;10.37;78.45;98696.50;4474102;32;33896;-74
2023/10/19 07:16:22;;;;;;;10.93;6.32;;;;;;;10.07;80.03;98682.59;4475244;32;34075;-74
2023/10/19 07:18:51;;;;;;;13.45;7.10;;;;;;;10.08;80.73;98681.75;4477473;32;33006;-74
2023/10/19 07:21:23;;;;;;;13.23;6.72;;;;;;;10.21;79.53;98680.50;4467293;32;34436;-76
2023/10/19 07:23:53;;;;;;;10.00;5.97;;;;;;;10.35;78.86;98682.72;4465857;32;34389;-76
2023/10/19 07:26:31;;;;;;;10.50;6.10;;;;;;;10.35;79.41;98687.91;4477413;32;34171;-76
2023/10/19 07:29:05;;;;;;;11.93;6.37;;;;;;;10.35;79.49;98674.97;4473907;32;34178;-76
2023/10/19 07:31:35;;;;;;;10.38;6.45;;;;;;;10.42;78.57;98678.22;4473523;31;33564;-75
2023/10/19 07:34:08;;;;;;;15.15;7.20;;;;;;;10.10;80.40;98661.81;4468412;32;34492;-77
2023/10/19 07:36:37;;;;;;;13.38;6.85;;;;;;;10.14;80.46;98662.56;4466955;32;33584;-77
2023/10/19 07:39:13;;;;;;;11.90;6.30;;;;;;;10.60;78.05;98674.25;4462161;32;33313;-74
2023/10/19 07:41:45;;;;;;;13.62;6.15;;;;;;;10.11;79.98;98660.06;4467793;32;33512;-77
2023/10/19 07:44:25;;;;;;;11.63;6.22;;;;;;;10.26;80.29;98659.63;4476788;32;33769;-74
2023/10/19 07:47:01;;;;;;;15.07;6.95;;;;;;;10.56;78.63;98654.47;4475973;32;32545;-75
2023/10/19 07:49:38;;;;;;;10.70;5.75;;;;;;;10.83;77.28;98663.19;4466685;32;34241;-75
2023/10/19 07:52:07;;;;;;;10.60;6.75;;;;;;;10.05;81.26;98645.53;4476182;32;34919;-76
2023/10/19 07:54:46;;;;;;;11.43;6.72;;;;;;;10.73;78.05;98638.41;4463478;32;33836;-76
2023/10/19 07:57:17;;;;;;;11.63;5.53;;;;;;;10.10;81.28;98627.25;4479982;32;33759;-75
2023/10/19 07:59:47;;;;;;;14.90;7.40;;;;;;;10.25;80.72;98632.88;4464420;32;33194;-77
2023/10/19 08:02:19;;;;;;;12.00;5.97;;;;;;;10.77;78.44;98632.22;4471477;32;33772;-74
2023/10/19 08:04:48;;;;;;;8.00;5.28;;;;;;;10.95;77.76;98626.47;4463348;32;32406;-77
2023/10/19 08:07:21;;;;;;;12.68;6.75;;;;;;;10.77;78.58;98627.03;4470958;32;33752;-75
2023/10/19 08:09:50;;;;;;;9.27;5.55;;;;;;;10.82;78.88;98630.34;4465909;32;33060;-74
2023/10/19 08:12:24;;;;;;;11.45;6.37;;;;;;;10.69;79.60;98619.50;4474895;32;34396;-74
2023/10/19 08:14:53;;;;;;;11.35;7.15;;;;;;;10.79;79.23;98620.06;4466782;32;33544;-74
2023/10/19 08:17:25;;;;;;;9.35;5.75;;;;;;;10.94;78.11;98621.31;4465995;32;33793;-75
2023/10/19 08:19:55;;;;;;;9.75;5.03;;;;;;;11.37;77.09;98625.12;4466737;32;33526;-74
2023/10/19 08:22:24;;;;;;;9.82;5.68;;;;;;;11.42;76.92;98623.22;4469359;32;34120;-75
2023/10/19 08:24:54;;;;;;;10.05;5.90;;;;;;;11.34;76.77;98620.87;4465721;32;33723;-74
2023/10/19 08:27:26;;;;;;;9.93;5.53;;;;;;;11.70;74.87;98625.72;4469948;32;32935;-76
2023/10/19 08:29:56;;;;;;;9.43;5.72;;;;;;;11.53;75.42;98628.91;4475257;32;33902;-77
2023/10/19 08:32:32;;;;;;;15.48;5.60;;;;;;;11.46;76.40;98617.03;4468458;32;34657;-76
2023/10/19 08:35:01;;;;;;;9.45;5.75;;;;;;;11.51;75.60;98608.16;4467883;32;33789;-74
2023/10/19 08:37:36;;;;;;;9.75;5.85;;;;;;;11.36;76.68;98603.50;4466414;32;33759;-76
2023/10/19 08:40:13;;;;;;;11.88;5.75;;;;;;;11.47;75.82;98597.94;4458479;31;33767;-76
2023/10/19 08:42:45;;;;;;;11.27;5.82;;;;;;;11.60;75.93;98608.75;4466295;31;34315;-77
2023/10/19 08:45:17;;;;;;;13.00;5.60;;;;;;;11.63;76.09;98606.06;4470750;31;34751;-78
2023/10/19 08:47:56;;;;;;;7.97;4.43;;;;;;;11.81;75.24;98588.97;4462862;31;34887;-78
2023/10/19 08:50:25;;;;;;;10.65;5.65;;;;;;;11.63;76.25;98586.13;4466980;31;33925;-76
2023/10/19 08:52:58;;;;;;;10.93;5.03;;;;;;;11.63;75.96;98593.91;4469027;31;34109;-76
2023/10/19 08:55:27;;;;;;;7.97;4.78;;;;;;;11.85;74.75;98573.19;4466307;31;34387;-79
2023/10/19 08:58:22;;;;;;;8.05;4.87;;;;;;;12.10;73.91;98567.13;4471825;31;33374;-75
2023/10/19 09:00:53;;;;;;;12.40;5.80;;;;;;;11.92;74.68;98563.47;4471005;31;33242;-75
2023/10/19 09:03:32;;;;;;;11.53;5.67;;;;;;;12.03;75.12;98569.09;4462296;31;34023;-76
2023/10/19 09:06:05;;;;;;;8.88;4.68;;;;;;;12.27;74.89;98582.94;4464257;32;34302;-75
2023/10/19 09:08:46;;;;;;;11.20;5.75;;;;;;;12.23;74.47;98568.37;4465688;31;33563;-76
2023/10/19 09:11:15;;;;;;;;;;;;;;;12.47;73.34;98571.78;4473854;31;33556;-78
2023/10/19 09:13:51;;;;;;;10.23;4.93;;;;;;;12.32;73.89;98573.25;4467679;32;34899;-77
2023/10/19 09:16:21;;;;;;;12.70;5.07;;;;;;;12.43;73.53;98569.38;4463248;32;33548;-75
2023/10/19 09:19:16;;;;;;;9.05;5.30;;;;;;;11.80;75.40;98564.72;4462890;32;34363;-78
2023/10/19 09:21:46;;;;;;;8.82;5.50;;;;;;;12.42;74.14;98572.84;4468558;31;33032;-75
2023/10/19 09:24:20;;;;;;;11.48;5.07;;;;;;;12.49;73.91;98564.78;4481838;31;34612;-78
2023/10/19 09:26:57;;;;;;;10.35;5.75;;;;;;;12.34;74.99;98567.97;4479296;31;33904;-78
2023/10/19 09:29:26;;;;;;;13.48;6.30;;;;;;;12.68;73.36;98567.47;4461882;31;34249;-76
2023/10/19 09:32:02;;;;;;;9.35;5.75;;;;;;;12.83;73.66;98558.25;4463107;31;33652;-76
2023/10/19 09:34:35;;;;;;;11.35;5.55;;;;;;;12.87;72.08;98574.56;4464266;31;33605;-76
2023/10/19 09:37:08;;;;;;;12.07;6.15;;;;;;;12.93;72.40;98569.13;4478962;31;33679;-79
2023/10/19 09:39:43;;;;;;;8.02;4.55;;;;;;;13.08;71.31;98568.50;4472160;31;33200;-77
2023/10/19 09:42:16;;;;;;;10.52;4.78;;;;;;;12.76;72.44;98555.03;4474157;31;33508;-77
2023/10/19 09:45:05;;;;;;;11.33;5.80;;;;;;;12.93;71.94;98554.34;4468247;32;33548;-77
2023/10/19 09:47:36;;;;;;;9.93;5.50;;;;;;;13.20;70.30;98554.94;4467486;31;34674;-76
2023/10/19 09:50:08;;;;;;;12.20;4.50;;;;;;;12.75;72.06;98545.50;4479234;31;33861;-79
2023/10/19 09:52:37;;;;;;;9.98;5.72;;;;;;;12.59;72.60;98534.06;4447481;32;32808;-78
2023/10/19 09:55:13;;;;;;;9.48;5.28;;;;;;;13.02;71.30;98537.47;4471049;31;33823;-76
2023/10/19 09:57:50;;;;;;;11.85;5.70;;;;;;;12.94;72.10;98539.56;4470746;31;33916;-78
2023/10/19 10:00:23;;;;;;;11.30;5.87;;;;;;;12.90;72.35;98522.37;4468012;31;33324;-78
2023/10/19 10:02:55;;;;;;;11.20;5.65;;;;;;;12.90;73.10;98517.16;4480255;31;32649;-80
2023/10/19 10:05:48;;;;;;;8.20;4.87;;;;;;;12.80;72.96;98517.53;4476714;31;33166;-78
2023/10/19 10:08:33;;;;;;;10.60;5.18;;;;;;;13.51;70.30;98496.38;4470708;31;33942;-79
2023/10/19 10:11:18;;;;;;;12.95;5.70;;;;;;;13.01;71.44;98499.34;4466154;31;33658;-79
2023/10/19 10:13:51;;;;;;;9.02;5.40;;;;;;;13.30;71.13;98489.50;4464416;31;32950;-77
2023/10/19 10:16:27;;;;;;;10.77;5.43;;;;;;;12.85;72.62;98483.53;4461362;31;33856;-76
2023/10/19 10:18:59;;;;;;;10.70;5.43;;;;;;;13.01;72.30;98489.78;4453067;32;34358;-76
2023/10/19 10:21:34;;;;;;;10.18;6.07;;;;;;;13.37;71.42;98464.88;4470515;32;33518;-77
2023/10/19 10:24:08;;;;;;;13.07;6.25;;;;;;;13.17;72.04;98463.94;4474349;32;33081;-75
2023/10/19 10:27:02;;;;;;;9.70;5.03;;;;;;;13.01;72.97;98453.34;4473856;32;33557;-78
2023/10/19 10:29:32;;;;;;;8.15;4.65;;;;;;;13.23;71.32;98461.06;4470868;32;34592;-77
2023/10/19 10:32:01;;;;;;;8.98;5.30;;;;;;;12.69;73.45;98462.50;4475952;32;33787;-76
2023/10/19 10:34:43;;;;;;;10.45;5.28;;;;;;;13.04;72.48;98457.56;4469714;32;32978;-77
2023/10/19 10:37:20;;;;;;;9.35;5.47;;;;;;;13.20;72.05;98461.19;4473286;32;33865;-76
2023/10/19 10:39:49;;;;;;;12.88;5.95;;;;;;;13.30;72.07;98445.22;4471159;32;33831;-76
2023/10/19 10:42:26;;;;;;;11.40;6.07;;;;;;;13.48;71.23;98443.53;4475537;31;34502;-78
2023/10/19 10:44:58;;;;;;;11.57;5.57;;;;;;;13.86;69.43;98445.22;4475626;32;33876;-77
2023/10/19 10:47:29;;;;;;;10.50;5.72;;;;;;;13.70;70.85;98444.28;4474923;32;33856;-76
2023/10/19 10:50:03;;;;;;;13.38;6.20;;;;;;;13.79;70.17;98445.59;4469144;32;34104;-78
2023/10/19 10:52:36;;;;;;;11.05;5.45;;;;;;;14.03;69.11;98426.19;4468758;32;34972;-78
2023/10/19 10:55:13;;;;;;;9.48;5.28;;;;;;;13.72;69.08;98418.94;4475322;32;33041;-76
2023/10/19 10:57:45;;;;;;;12.07;6.65;;;;;;;14.09;68.08;98419.84;4480019;32;33389;-76
2023/10/19 11:00:16;;;;;;;12.45;6.78;;;;;;;13.78;70.38;98417.84;4474407;32;33464;-78
2023/10/19 11:02:49;;;;;;;9.82;5.75;;;;;;;14.00;69.37;98415.06;4475052;32;34517;-77
2023/10/19 11:05:19;;;;;;;10.85;5.28;;;;;;;14.03;69.41;98413.16;4476296;32;33759;-75
2023/10/19 11:08:09;;;;;;;11.68;6.18;;;;;;;13.85;70.96;98409.66;4473913;31;33041;-79
2023/10/19 11:10:38;;;;;;;10.77;5.15;;;;;;;14.32;69.03;98408.28;4479932;31;33611;-76
2023/10/19 11:13:12;;;;;;;10.10;6.12;;;;;;;14.32;68.39;98397.84;4472342;32;34551;-76
2023/10/19 11:15:49;;;;;;;9.73;5.43;;;;;;;14.55;68.10;98398.53;4471599;32;33022;-77
2023/10/19 11:18:31;;;;;;;10.45;5.00;;;;;;;14.41;68.46;98400.00;4471591;32;33673;-76
2023/10/19 11:21:09;;;;;;;9.18;5.57;;;;;;;14.52;67.74;98383.81;4472223;32;33555;-78
2023/10/19 11:23:44;;;;;;;12.48;5.30;;;;;;;14.44;68.48;98386.81;4477386;32;34158;-76
2023/10/19 11:26:15;;;;;;;11.65;5.80;;;;;;;14.89;66.87;98385.44;4480891;31;34734;-76
2023/10/19 11:28:50;;;;;;;9.23;5.20;;;;;;;14.82;66.76;98389.28;4475803;32;32928;-75
2023/10/19 11:31:21;;;;;;;10.07;6.00;;;;;;;14.96;66.47;98385.97;4473454;32;34099;-76
2023/10/19 11:33:52;;;;;;;12.82;6.97;;;;;;;15.16;66.00;98377.09;4474810;32;33580;-78
2023/10/19 11:36:24;;;;;;;10.25;6.55;;;;;;;14.66;67.91;98375.31;4480932;32;34595;-76
2023/10/19 11:38:55;;;;;;;12.23;5.50;;;;;;;14.97;67.50;98363.31;4480267;32;33798;-76
2023/10/19 11:41:25;;;;;;;10.98;6.45;;;;;;;14.69;67.98;98367.34;4475672;32;33835;-77
2023/10/19 11:43:54;;;;;;;11.02;6.62;;;;;;;14.89;67.11;98367.16;4480513;31;33727;-77
2023/10/19 11:46:26;;;;;;;10.77;5.80;;;;;;;14.96;67.14;98357.25;4483452;31;32614;-76
2023/10/19 11:48:55;;;;;;;11.80;6.53;;;;;;;14.68;68.29;98353.44;4481004;31;34485;-76
2023/10/19 11:51:27;;;;;;;11.75;5.78;;;;;;;14.80;67.17;98344.12;4468675;32;34069;-76
2023/10/19 11:53:58;;;;;;;8.57;4.60;;;;;;;14.89;67.34;98351.50;4471086;32;33897;-79
2023/10/19 11:56:31;;;;;;;10.57;5.53;;;;;;;15.27;66.11;98356.47;4470463;32;32574;-76
2023/10/19 11:59:01;;;;;;;10.23;5.53;;;;;;;15.34;66.24;98360.44;4470963;32;34202;-77
2023/10/19 12:01:38;;;;;;;9.85;5.28;;;;;;;15.40;66.24;98369.72;4475496;32;33636;-76